Startpagina
METAR-TAF:

METAR-TAF

Vliegvelden :

Jinotega, Nicaragua

breedte: 13-05N, lengte: 085-59W, hoogte: 985 m

Actueel weer

Dit bericht is 8 uur en het 46 minuten geleden gemaakt, om 23:00 UTC
Wind 16 kt uit het noorden
Temperatuur 21°C
Vochtigheid 88%
Druk 1013 hPa
Zicht 10 km of meer
Gebroken wolken op 2000 ft

METAR: MNJG 202300Z 36016KT 9999 BKN020 21/19 Q1013

Tijdstip: 01:46 (07:46 UTC)


TAF: ontbreekt

Waarnemingen en weersverwachtingen van meer dan 4000 vliegvelden (METAR en TAF).

De beschikbare stations zijn de gele en rode punten op de kaart.

Ga met uw muis naar het station om de naam te zien.

Klik dan om waarnemingen en weersverwachtingen te zien.

kaart wijzigen: klik op de groene knoppen met een zwart kruis om in te zoomen, op de groene knop met een streepje om uit te zoomen of op de groene pijlen voor aangrenzende kaarten.


METAR-TAF: